Date,TemperatureHighF,TemperatureAvgF,TemperatureLowF,DewpointHighF,DewpointAvgF,DewpointLowF,HumidityHigh,HumidityAvg,HumidityLow,PressureMaxIn,PressureMinIn,WindSpeedMaxMPH,WindSpeedAvgMPH,GustSpeedMaxMPH,PrecipitationSumIn
2013-5-1,70.0,50.5,39.2,54.1,39.0,23.7,85,65,27,30.58,30.41,17,1,17,0.05
2013-5-2,64.9,53.3,42.8,48.4,41.7,36.4,85,66,41,30.54,30.38,4,1,11,0.00
2013-5-3,73.6,59.2,45.3,51.7,46.5,42.3,92,65,39,30.43,30.22,4,1,50,0.00
2013-5-4,78.1,62.0,26.4,53.9,48.8,19.0,87,64,30,30.28,30.00,4,1,11,0.05
2013-5-5,85.5,66.7,52.3,56.3,49.2,41.1,81,56,23,30.01,29.75,3,1,6,0.00
2013-5-6,84.4,69.1,55.6,56.1,48.7,43.8,73,49,31,29.84,29.70,3,1,11,0.00
2013-5-7,71.2,63.3,57.0,57.6,54.0,50.0,89,72,57,29.92,29.74,7,2,13,0.00
2013-5-8,70.0,59.7,53.6,57.2,54.6,52.1,98,84,62,30.09,29.91,8,2,19,0.00
2013-5-9,69.6,60.7,52.3,58.2,55.0,51.9,99,83,61,30.20,30.06,4,1,8,0.00
2013-5-10,76.8,62.3,54.5,58.9,55.0,50.4,98,78,45,30.18,30.07,4,2,8,0.00
2013-5-11,64.8,59.6,57.2,58.4,56.5,54.3,99,90,76,30.11,29.93,3,1,8,0.00
2013-5-12,66.0,61.7,57.2,60.2,58.0,53.4,99,88,73,29.98,29.91,11,5,21,0.00
2013-5-13,59.7,55.4,52.0,55.2,51.3,44.1,99,86,71,30.09,29.83,8,2,17,0.00
2013-5-14,62.6,55.0,48.0,50.7,46.7,42.8,90,74,57,30.17,30.08,8,3,19,0.00
2013-5-15,68.4,56.1,49.1,51.8,49.7,46.4,99,81,48,30.10,29.96,3,1,10,0.00
2013-5-16,70.7,58.8,52.9,55.1,52.4,48.9,94,81,53,29.99,29.85,5,2,8,0.00
2013-5-17,62.2,56.8,51.8,57.3,53.3,49.7,96,88,79,29.98,29.88,11,4,18,0.00
2013-5-18,61.5,56.9,53.1,54.1,51.0,48.2,89,81,69,30.24,29.97,7,3,14,0.00
2013-5-19,72.7,61.4,52.9,53.7,48.9,41.0,92,67,36,30.35,30.24,3,1,13,0.00
2013-5-20,61.9,55.6,50.5,55.1,50.8,45.1,99,84,72,30.31,29.91,5,2,11,0.00
2013-5-21,57.4,51.2,47.3,50.6,48.1,46.2,99,90,71,29.91,29.75,5,1,11,0.00
2013-5-22,64.6,54.6,46.9,52.1,48.8,46.1,98,82,55,29.85,29.79,4,1,8,0.00
2013-5-23,64.4,55.3,46.8,51.1,47.0,42.4,96,75,53,29.97,29.85,12,3,22,0.00
2013-5-24,66.4,56.4,45.7,52.1,47.7,43.2,96,74,51,29.98,29.94,7,3,16,0.00
2013-5-25,62.4,55.3,48.0,53.2,48.3,43.4,93,78,59,29.99,29.96,9,4,20,0.00
2013-5-26,62.8,56.0,47.5,55.0,51.1,46.4,98,84,70,29.97,29.89,11,4,23,0.01
2013-5-27,60.6,56.6,53.1,55.8,53.3,48.9,99,89,67,29.90,29.66,7,2,20,0.00
2013-5-28,58.1,55.5,52.3,54.2,51.8,48.6,98,88,73,29.81,29.68,8,4,20,0.00
2013-5-29,60.8,54.7,50.9,56.2,52.5,50.3,99,93,79,29.88,29.67,3,1,8,0.00
2013-5-30,59.9,53.7,50.5,53.2,50.4,47.0,99,89,67,30.19,29.88,10,3,21,0.00
2013-5-31,66.0,56.6,50.4,55.1,51.6,49.6,99,84,60,30.33,30.19,4,1,8,0.00